Time;durP1;ratioP1;P1;durP2;ratioP2;P2;SDS_P1;SDS_P2;PMS_P1;PMS_P2;Temp;Humidity;BMP_temperature;BMP_pressure;BME280_temperature;BME280_humidity;BME280_pressure;Samples;Min_cycle;Max_cycle;Signal;HPM_P1;HPM_P2
2023/08/13 00:01:35;;;;;;;23.13;10.70;;;;;;;;;;5066067;28;20041;-48
2023/08/13 00:04:04;;;;;;;17.65;8.65;;;;;;;;;;5065315;28;20333;-51
2023/08/13 00:06:33;;;;;;;19.85;7.00;;;;;;;;;;5048148;28;20063;-51
2023/08/13 00:09:04;;;;;;;24.73;6.72;;;;;;;;;;5048306;28;20327;-50
2023/08/13 00:11:41;;;;;;;;;;;;;;;;;;;;;
2023/08/13 00:14:15;;;;;;;18.23;6.18;;;;;;;;;;5066492;28;20056;-51
2023/08/13 00:16:42;;;;;;;10.18;5.70;;;;;;;;;;5065167;28;20135;-49
2023/08/13 00:19:14;;;;;;;12.60;4.90;;;;;;;;;;5065166;28;20033;-55
2023/08/13 00:21:41;;;;;;;10.07;5.07;;;;;;;;;;5064780;28;20020;-47
2023/08/13 00:24:08;;;;;;;9.15;4.40;;;;;;;;;;5065130;28;20029;-51
2023/08/13 00:26:38;;;;;;;8.40;4.35;;;;;;;;;;5065188;28;20275;-49
2023/08/13 00:29:05;;;;;;;6.63;4.25;;;;;;;;;;5065207;28;20021;-54
2023/08/13 00:31:34;;;;;;;8.27;4.18;;;;;;;;;;5064920;28;20064;-51
2023/08/13 00:34:01;;;;;;;11.82;4.03;;;;;;;;;;5065287;28;20029;-52
2023/08/13 00:36:28;;;;;;;12.35;4.50;;;;;;;;;;5065107;28;20337;-53
2023/08/13 00:39:00;;;;;;;9.85;4.65;;;;;;;;;;5065370;28;20027;-52
2023/08/13 00:41:26;;;;;;;9.75;5.32;;;;;;;;;;5065486;28;20071;-53
2023/08/13 00:43:53;;;;;;;10.13;5.13;;;;;;;;;;5064574;28;20078;-56
2023/08/13 00:46:20;;;;;;;7.97;4.53;;;;;;;;;;5064837;28;20398;-56
2023/08/13 00:48:54;;;;;;;14.43;4.43;;;;;;;;;;5064542;28;20024;-58
2023/08/13 00:51:22;;;;;;;22.27;5.50;;;;;;;;;;5064811;28;20047;-51
2023/08/13 00:53:49;;;;;;;10.80;4.30;;;;;;;;;;5064406;28;20143;-49
2023/08/13 00:56:17;;;;;;;10.50;4.40;;;;;;;;;;5064831;28;20345;-49
2023/08/13 00:58:45;;;;;;;8.95;4.55;;;;;;;;;;5064188;28;20369;-53
2023/08/13 01:01:12;;;;;;;7.80;4.50;;;;;;;;;;5046988;28;20052;-52
2023/08/13 01:03:39;;;;;;;8.88;4.20;;;;;;;;;;5064460;28;20059;-53
2023/08/13 01:06:27;;;;;;;13.45;3.70;;;;;;;;;;5064328;28;20029;-48
2023/08/13 01:09:01;;;;;;;10.23;3.83;;;;;;;;;;5064253;28;20064;-51
2023/08/13 01:11:32;;;;;;;7.10;3.40;;;;;;;;;;5064843;28;20336;-52
2023/08/13 01:14:19;;;;;;;8.90;3.35;;;;;;;;;;5064024;28;20033;-52
2023/08/13 01:16:47;;;;;;;8.73;3.70;;;;;;;;;;5064159;28;20033;-51
2023/08/13 01:19:13;;;;;;;11.30;3.10;;;;;;;;;;5064237;28;20029;-57
2023/08/13 01:21:50;;;;;;;;;;;;;;;;;;;;;
2023/08/13 01:24:18;;;;;;;8.45;3.42;;;;;;;;;;5061336;28;20064;-55
2023/08/13 01:26:50;;;;;;;7.72;3.50;;;;;;;;;;5064352;28;20321;-55
2023/08/13 01:29:26;;;;;;;7.47;3.13;;;;;;;;;;5063800;28;20035;-52
2023/08/13 01:31:55;;;;;;;9.40;3.40;;;;;;;;;;5063993;28;20025;-55
2023/08/13 01:34:25;;;;;;;7.45;3.10;;;;;;;;;;5063884;28;20083;-52
2023/08/13 01:36:51;;;;;;;7.57;3.47;;;;;;;;;;5063749;28;20051;-55
2023/08/13 01:39:18;;;;;;;6.57;3.33;;;;;;;;;;5063810;28;20024;-56
2023/08/13 01:41:51;;;;;;;10.77;3.50;;;;;;;;;;5063823;28;20033;-49
2023/08/13 01:44:22;;;;;;;5.38;3.50;;;;;;;;;;5063961;28;20213;-51
2023/08/13 01:46:51;;;;;;;7.13;3.10;;;;;;;;;;5063761;28;20096;-57
2023/08/13 01:49:19;;;;;;;9.60;3.30;;;;;;;;;;5045648;28;20044;-52
2023/08/13 01:51:48;;;;;;;7.50;3.05;;;;;;;;;;5064262;28;20088;-50
2023/08/13 01:54:15;;;;;;;7.03;3.10;;;;;;;;;;5045736;28;20037;-57
2023/08/13 01:56:41;;;;;;;5.40;2.75;;;;;;;;;;5063417;28;20029;-54
2023/08/13 01:59:09;;;;;;;5.00;2.80;;;;;;;;;;5064075;28;20052;-49
2023/08/13 02:01:54;;;;;;;7.30;2.70;;;;;;;;;;5063553;28;20092;-57
2023/08/13 02:04:21;;;;;;;8.43;3.55;;;;;;;;;;5063696;28;20052;-48
2023/08/13 02:06:48;;;;;;;5.72;2.90;;;;;;;;;;5063389;28;20028;-50
2023/08/13 02:09:17;;;;;;;8.82;3.35;;;;;;;;;;5064247;28;20219;-49
2023/08/13 02:11:44;;;;;;;6.85;2.75;;;;;;;;;;5067574;28;20031;-53
2023/08/13 02:14:11;;;;;;;6.90;3.08;;;;;;;;;;5067423;28;20033;-50
2023/08/13 02:16:37;;;;;;;7.55;3.20;;;;;;;;;;5067183;28;20025;-60
2023/08/13 02:19:04;;;;;;;7.22;3.85;;;;;;;;;;5067764;28;20021;-56
2023/08/13 02:21:31;;;;;;;8.82;4.30;;;;;;;;;;5067536;28;20313;-48
2023/08/13 02:23:57;;;;;;;9.10;3.85;;;;;;;;;;5049183;28;20213;-48
2023/08/13 02:26:29;;;;;;;9.63;4.32;;;;;;;;;;5067219;28;20348;-56
2023/08/13 02:29:05;;;;;;;6.75;4.43;;;;;;;;;;5067252;28;20025;-56
2023/08/13 02:31:40;;;;;;;8.60;3.80;;;;;;;;;;5067552;28;20093;-52
2023/08/13 02:34:07;;;;;;;6.20;3.88;;;;;;;;;;5066977;28;20028;-49
2023/08/13 02:36:33;;;;;;;9.38;4.18;;;;;;;;;;5066786;28;20037;-51
2023/08/13 02:39:00;;;;;;;8.70;4.57;;;;;;;;;;5066771;28;20029;-50
2023/08/13 02:41:27;;;;;;;8.55;4.05;;;;;;;;;;5066916;28;20020;-48
2023/08/13 02:44:02;;;;;;;11.45;3.58;;;;;;;;;;5066670;28;20020;-50
2023/08/13 02:46:29;;;;;;;7.53;3.35;;;;;;;;;;5066955;28;20025;-47
2023/08/13 02:48:56;;;;;;;7.53;3.70;;;;;;;;;;5066713;28;20024;-52
2023/08/13 02:51:24;;;;;;;10.63;3.22;;;;;;;;;;5066740;28;20021;-51
2023/08/13 02:53:51;;;;;;;5.90;2.88;;;;;;;;;;5066623;28;20078;-50
2023/08/13 02:56:18;;;;;;;7.07;2.90;;;;;;;;;;5048967;28;20021;-48
2023/08/13 02:58:45;;;;;;;7.85;2.95;;;;;;;;;;5066608;28;20059;-48
2023/08/13 03:01:12;;;;;;;5.68;2.88;;;;;;;;;;5066841;28;20301;-50
2023/08/13 03:03:39;;;;;;;7.63;3.00;;;;;;;;;;5066638;28;20028;-50
2023/08/13 03:06:05;;;;;;;9.07;3.33;;;;;;;;;;5066252;28;20036;-50
2023/08/13 03:08:32;;;;;;;8.07;2.92;;;;;;;;;;5066478;28;20037;-52
2023/08/13 03:11:00;;;;;;;7.45;2.95;;;;;;;;;;5066240;28;20036;-52
2023/08/13 03:13:26;;;;;;;5.80;3.20;;;;;;;;;;5066093;28;20130;-56
2023/08/13 03:15:53;;;;;;;5.68;2.90;;;;;;;;;;5066082;28;20355;-49
2023/08/13 03:18:20;;;;;;;8.18;3.20;;;;;;;;;;5066260;28;20048;-50
2023/08/13 03:20:46;;;;;;;4.97;2.85;;;;;;;;;;5065308;28;20048;-50
2023/08/13 03:23:13;;;;;;;6.72;2.95;;;;;;;;;;5066115;28;20039;-50
2023/08/13 03:25:40;;;;;;;6.82;3.05;;;;;;;;;;5066415;28;20029;-47
2023/08/13 03:28:06;;;;;;;6.45;2.95;;;;;;;;;;5065775;28;20092;-50
2023/08/13 03:30:33;;;;;;;5.60;2.85;;;;;;;;;;5065962;28;20036;-57
2023/08/13 03:33:01;;;;;;;9.15;3.22;;;;;;;;;;5066344;28;20021;-50
2023/08/13 03:35:27;;;;;;;6.72;3.13;;;;;;;;;;5065524;28;20053;-54
2023/08/13 03:37:54;;;;;;;6.70;2.92;;;;;;;;;;5066240;28;20115;-51
2023/08/13 03:40:21;;;;;;;7.55;2.92;;;;;;;;;;5065790;28;20103;-49
2023/08/13 03:42:47;;;;;;;5.90;2.97;;;;;;;;;;5065995;28;20313;-50
2023/08/13 03:45:14;;;;;;;9.45;3.17;;;;;;;;;;5065735;28;20071;-54
2023/08/13 03:47:41;;;;;;;12.93;3.42;;;;;;;;;;5066060;28;20111;-54
2023/08/13 03:50:09;;;;;;;13.55;3.30;;;;;;;;;;5065493;28;20045;-52
2023/08/13 03:52:35;;;;;;;18.48;3.90;;;;;;;;;;5065899;28;20021;-47
2023/08/13 03:55:02;;;;;;;18.20;3.70;;;;;;;;;;5065541;28;20062;-51
2023/08/13 03:57:29;;;;;;;12.32;3.63;;;;;;;;;;5065546;28;20039;-51
2023/08/13 03:59:55;;;;;;;14.23;4.03;;;;;;;;;;5065295;28;20091;-50
2023/08/13 04:02:22;;;;;;;11.02;4.90;;;;;;;;;;5065721;28;20294;-52
2023/08/13 04:04:48;;;;;;;12.63;5.10;;;;;;;;;;5065155;28;20048;-50
2023/08/13 04:07:15;;;;;;;13.15;5.18;;;;;;;;;;5065436;28;20059;-53
2023/08/13 04:09:42;;;;;;;12.55;5.30;;;;;;;;;;5065216;28;20028;-54
2023/08/13 04:12:08;;;;;;;11.00;4.60;;;;;;;;;;5065143;28;20025;-53
2023/08/13 04:14:35;;;;;;;9.05;4.00;;;;;;;;;;5065128;28;20040;-50
2023/08/13 04:17:03;;;;;;;7.25;4.13;;;;;;;;;;5065179;28;20033;-49
2023/08/13 04:19:30;;;;;;;15.50;3.95;;;;;;;;;;5064756;28;20060;-52
2023/08/13 04:21:57;;;;;;;7.93;3.35;;;;;;;;;;5065071;28;20029;-51
2023/08/13 04:24:23;;;;;;;11.80;3.90;;;;;;;;;;5065516;28;20327;-53
2023/08/13 04:26:52;;;;;;;8.48;3.67;;;;;;;;;;5065062;28;20212;-53
2023/08/13 04:29:19;;;;;;;9.30;3.90;;;;;;;;;;5065043;28;20348;-49
2023/08/13 04:31:46;;;;;;;13.27;3.67;;;;;;;;;;5064135;28;20366;-55
2023/08/13 04:34:13;;;;;;;5.40;3.28;;;;;;;;;;5064445;28;20041;-52
2023/08/13 04:36:48;;;;;;;6.35;3.20;;;;;;;;;;5065181;28;20056;-56
2023/08/13 04:39:15;;;;;;;7.57;3.10;;;;;;;;;;5064931;28;20021;-51
2023/08/13 04:41:42;;;;;;;6.50;3.40;;;;;;;;;;5064609;28;20040;-48
2023/08/13 04:44:08;;;;;;;9.10;3.80;;;;;;;;;;5064641;28;20063;-49
2023/08/13 04:46:35;;;;;;;6.45;3.50;;;;;;;;;;5064618;28;20063;-49
2023/08/13 04:49:02;;;;;;;5.63;3.67;;;;;;;;;;5064286;28;20033;-46
2023/08/13 04:51:28;;;;;;;7.75;3.80;;;;;;;;;;5064415;28;20025;-50
2023/08/13 04:53:55;;;;;;;9.23;3.58;;;;;;;;;;5064418;28;20344;-55
2023/08/13 04:56:22;;;;;;;8.90;3.60;;;;;;;;;;5064115;28;20028;-49
2023/08/13 04:58:48;;;;;;;7.03;3.72;;;;;;;;;;5064273;28;20336;-49
2023/08/13 05:01:15;;;;;;;12.00;3.72;;;;;;;;;;5064396;28;20013;-51
2023/08/13 05:03:42;;;;;;;8.80;3.53;;;;;;;;;;5064038;28;20293;-52
2023/08/13 05:06:08;;;;;;;8.48;3.70;;;;;;;;;;5064410;28;20328;-54
2023/08/13 05:08:37;;;;;;;8.48;3.63;;;;;;;;;;5064235;28;20033;-52
2023/08/13 05:11:04;;;;;;;7.22;3.42;;;;;;;;;;5064130;28;20100;-53
2023/08/13 05:13:30;;;;;;;9.40;3.70;;;;;;;;;;5064310;28;20098;-52
2023/08/13 05:15:57;;;;;;;7.22;3.35;;;;;;;;;;5063949;28;20040;-48
2023/08/13 05:18:24;;;;;;;5.18;3.38;;;;;;;;;;5063860;28;20068;-47
2023/08/13 05:20:50;;;;;;;9.13;3.42;;;;;;;;;;5063743;28;20020;-49
2023/08/13 05:23:20;;;;;;;9.13;3.28;;;;;;;;;;5044002;28;20336;-53
2023/08/13 05:25:46;;;;;;;8.13;3.10;;;;;;;;;;5043015;28;20033;-53
2023/08/13 05:28:13;;;;;;;9.13;3.33;;;;;;;;;;5042425;28;20029;-52
2023/08/13 05:30:40;;;;;;;6.63;3.40;;;;;;;;;;5043436;28;20044;-56
2023/08/13 05:33:06;;;;;;;6.97;3.53;;;;;;;;;;5044095;28;20037;-52
2023/08/13 05:35:33;;;;;;;6.72;3.85;;;;;;;;;;5055337;28;20065;-53
2023/08/13 05:38:01;;;;;;;9.30;4.03;;;;;;;;;;5064166;28;20025;-50
2023/08/13 05:40:31;;;;;;;8.05;3.72;;;;;;;;;;5063909;28;20055;-50
2023/08/13 05:42:58;;;;;;;8.18;4.10;;;;;;;;;;5046382;28;20372;-49
2023/08/13 05:45:24;;;;;;;8.38;3.45;;;;;;;;;;5067593;28;20029;-50
2023/08/13 05:47:51;;;;;;;7.97;3.33;;;;;;;;;;5066567;28;20048;-50
2023/08/13 05:50:18;;;;;;;6.55;3.33;;;;;;;;;;5065975;28;20373;-51
2023/08/13 05:52:45;;;;;;;10.95;3.90;;;;;;;;;;5066460;28;20024;-47
2023/08/13 05:55:11;;;;;;;6.00;3.25;;;;;;;;;;5065902;28;20036;-52
2023/08/13 05:57:38;;;;;;;6.47;3.13;;;;;;;;;;5066231;28;20029;-53
2023/08/13 06:00:09;;;;;;;8.48;3.55;;;;;;;;;;5065920;28;20101;-51
2023/08/13 06:02:37;;;;;;;6.80;3.10;;;;;;;;;;5067840;28;20035;-51
2023/08/13 06:05:04;;;;;;;9.02;3.30;;;;;;;;;;5067412;28;20255;-51
2023/08/13 06:07:30;;;;;;;7.55;3.15;;;;;;;;;;5068026;28;20021;-54
2023/08/13 06:09:57;;;;;;;9.70;3.53;;;;;;;;;;5067413;28;20033;-52
2023/08/13 06:12:24;;;;;;;6.15;2.97;;;;;;;;;;5067210;28;20363;-49
2023/08/13 06:14:50;;;;;;;7.00;3.10;;;;;;;;;;5067381;28;20025;-57
2023/08/13 06:17:17;;;;;;;7.03;3.35;;;;;;;;;;5067640;28;20306;-49
2023/08/13 06:19:44;;;;;;;4.78;2.83;;;;;;;;;;5067145;28;20084;-49
2023/08/13 06:22:11;;;;;;;9.15;3.35;;;;;;;;;;5067784;28;20242;-48
2023/08/13 06:24:38;;;;;;;6.20;3.03;;;;;;;;;;5067055;28;20029;-52
2023/08/13 06:27:04;;;;;;;9.68;2.88;;;;;;;;;;5067258;28;20075;-48
2023/08/13 06:29:31;;;;;;;6.25;3.05;;;;;;;;;;5067349;28;20024;-46
2023/08/13 06:31:58;;;;;;;3.60;2.78;;;;;;;;;;5067265;28;20032;-49
2023/08/13 06:34:24;;;;;;;5.15;2.80;;;;;;;;;;5066633;28;20024;-53
2023/08/13 06:36:51;;;;;;;6.97;2.88;;;;;;;;;;5067144;28;20029;-51
2023/08/13 06:39:18;;;;;;;6.18;3.00;;;;;;;;;;5066879;28;20255;-50
2023/08/13 06:41:45;;;;;;;6.10;2.97;;;;;;;;;;5066909;28;20020;-46
2023/08/13 06:44:21;;;;;;;5.85;2.88;;;;;;;;;;5066868;28;20025;-51
2023/08/13 06:46:48;;;;;;;8.60;3.22;;;;;;;;;;5066975;28;20033;-49
2023/08/13 06:49:15;;;;;;;5.72;2.45;;;;;;;;;;5066623;28;20373;-53
2023/08/13 06:51:41;;;;;;;4.50;2.88;;;;;;;;;;5066915;28;20248;-53
2023/08/13 06:54:08;;;;;;;4.15;2.78;;;;;;;;;;5066611;28;20055;-51
2023/08/13 06:56:35;;;;;;;6.07;2.60;;;;;;;;;;5065689;28;20066;-51
2023/08/13 06:59:05;;;;;;;4.07;2.80;;;;;;;;;;5066572;28;20025;-51
2023/08/13 07:01:32;;;;;;;8.30;2.75;;;;;;;;;;5066645;28;20027;-46
2023/08/13 07:03:59;;;;;;;4.32;2.78;;;;;;;;;;5066333;28;20404;-55
2023/08/13 07:06:25;;;;;;;10.45;3.65;;;;;;;;;;5057509;28;20041;-50
2023/08/13 07:08:52;;;;;;;6.00;3.20;;;;;;;;;;5039855;28;20034;-52
2023/08/13 07:11:19;;;;;;;8.00;3.10;;;;;;;;;;5041672;28;20025;-53
2023/08/13 07:13:45;;;;;;;7.35;3.05;;;;;;;;;;5037345;28;20344;-52
2023/08/13 07:16:13;;;;;;;9.35;3.00;;;;;;;;;;5026526;28;20053;-53
2023/08/13 07:18:42;;;;;;;8.80;3.00;;;;;;;;;;5026286;28;20021;-50
2023/08/13 07:21:08;;;;;;;12.20;2.85;;;;;;;;;;5026383;28;20022;-51
2023/08/13 07:23:36;;;;;;;7.35;3.10;;;;;;;;;;5026393;28;20226;-53
2023/08/13 07:26:03;;;;;;;8.77;3.17;;;;;;;;;;5026175;28;20033;-53
2023/08/13 07:28:32;;;;;;;6.47;3.45;;;;;;;;;;5031468;28;20265;-51
2023/08/13 07:30:59;;;;;;;6.22;3.50;;;;;;;;;;5045916;28;20036;-54
2023/08/13 07:33:25;;;;;;;7.97;2.90;;;;;;;;;;5045756;28;20033;-51
2023/08/13 07:35:52;;;;;;;6.85;3.25;;;;;;;;;;5031091;28;20048;-52
2023/08/13 07:38:18;;;;;;;8.48;3.22;;;;;;;;;;5026097;28;20056;-53
2023/08/13 07:40:45;;;;;;;9.10;3.25;;;;;;;;;;5025599;28;20022;-53
2023/08/13 07:43:12;;;;;;;7.93;2.95;;;;;;;;;;5025954;28;20097;-52
2023/08/13 07:45:38;;;;;;;7.47;3.25;;;;;;;;;;5025903;28;20033;-50
2023/08/13 07:48:05;;;;;;;6.88;3.20;;;;;;;;;;5026415;28;20133;-52
2023/08/13 07:50:34;;;;;;;7.55;2.92;;;;;;;;;;5025717;28;20266;-52
2023/08/13 07:53:00;;;;;;;6.30;2.97;;;;;;;;;;5026258;28;20018;-50
2023/08/13 07:55:27;;;;;;;6.28;3.25;;;;;;;;;;5041003;28;20025;-52
2023/08/13 07:57:54;;;;;;;8.15;3.70;;;;;;;;;;5045922;28;20033;-52
2023/08/13 08:00:21;;;;;;;8.77;3.20;;;;;;;;;;5045435;28;20028;-55
2023/08/13 08:02:48;;;;;;;7.63;3.33;;;;;;;;;;5045704;28;20025;-50
2023/08/13 08:05:16;;;;;;;5.43;2.58;;;;;;;;;;5045445;28;20064;-51
2023/08/13 08:07:43;;;;;;;7.32;2.70;;;;;;;;;;5045541;28;20032;-52
2023/08/13 08:10:09;;;;;;;7.95;3.10;;;;;;;;;;5045065;28;20380;-54
2023/08/13 08:12:36;;;;;;;9.32;3.17;;;;;;;;;;5045712;28;20221;-50
2023/08/13 08:15:03;;;;;;;5.53;2.55;;;;;;;;;;5045076;28;20048;-50
2023/08/13 08:17:30;;;;;;;8.02;3.00;;;;;;;;;;5045306;28;20072;-54
2023/08/13 08:19:59;;;;;;;5.75;3.20;;;;;;;;;;5044965;28;20210;-54
2023/08/13 08:22:26;;;;;;;5.65;3.05;;;;;;;;;;5044661;28;20029;-57
2023/08/13 08:24:54;;;;;;;9.40;3.38;;;;;;;;;;5044756;28;20217;-52
2023/08/13 08:27:21;;;;;;;4.72;2.70;;;;;;;;;;5045262;28;20028;-52
2023/08/13 08:29:48;;;;;;;7.35;3.22;;;;;;;;;;5044852;28;20026;-56
2023/08/13 08:32:14;;;;;;;9.30;3.17;;;;;;;;;;5044859;28;20021;-53
2023/08/13 08:34:41;;;;;;;5.78;2.88;;;;;;;;;;5044533;28;20085;-51
2023/08/13 08:37:10;;;;;;;6.95;2.97;;;;;;;;;;5044997;28;20046;-53
2023/08/13 08:39:37;;;;;;;7.72;3.08;;;;;;;;;;5044751;28;20344;-56
2023/08/13 08:42:03;;;;;;;5.95;2.78;;;;;;;;;;5044578;28;20033;-55
2023/08/13 08:44:31;;;;;;;5.80;3.25;;;;;;;;;;5044563;28;20060;-52
2023/08/13 08:46:58;;;;;;;5.45;2.97;;;;;;;;;;5044636;28;20025;-51
2023/08/13 08:49:25;;;;;;;6.18;2.80;;;;;;;;;;5043717;28;20095;-52
2023/08/13 08:51:52;;;;;;;5.93;3.03;;;;;;;;;;5044560;28;20040;-50
2023/08/13 08:54:19;;;;;;;6.35;2.90;;;;;;;;;;5044218;28;20025;-50
2023/08/13 08:56:45;;;;;;;9.40;2.92;;;;;;;;;;5044374;28;20083;-54
2023/08/13 08:59:12;;;;;;;6.65;2.55;;;;;;;;;;5044538;28;20203;-52
2023/08/13 09:01:40;;;;;;;9.13;2.97;;;;;;;;;;5044444;28;20243;-49
2023/08/13 09:04:07;;;;;;;7.65;2.83;;;;;;;;;;5044206;28;20057;-50
2023/08/13 09:06:52;;;;;;;6.40;2.47;;;;;;;;;;5044268;28;20048;-52
2023/08/13 09:09:22;;;;;;;5.90;2.50;;;;;;;;;;5044082;28;20072;-56
2023/08/13 09:11:48;;;;;;;5.90;2.72;;;;;;;;;;5044240;28;20034;-50
2023/08/13 09:14:15;;;;;;;4.80;2.50;;;;;;;;;;5043958;28;20025;-52
2023/08/13 09:16:46;;;;;;;6.40;2.72;;;;;;;;;;5044300;28;20071;-50
2023/08/13 09:19:13;;;;;;;4.55;2.70;;;;;;;;;;5043500;28;20230;-53
2023/08/13 09:21:41;;;;;;;8.05;3.10;;;;;;;;;;5044375;28;20021;-50
2023/08/13 09:24:10;;;;;;;8.18;2.80;;;;;;;;;;5044162;28;20318;-55
2023/08/13 09:26:37;;;;;;;5.38;2.70;;;;;;;;;;5044050;28;20070;-51
2023/08/13 09:29:09;;;;;;;4.95;2.58;;;;;;;;;;5043693;28;20259;-55
2023/08/13 09:31:36;;;;;;;6.22;2.88;;;;;;;;;;5044005;28;20021;-54
2023/08/13 09:34:03;;;;;;;6.32;2.70;;;;;;;;;;5043757;28;20051;-53
2023/08/13 09:36:30;;;;;;;6.50;2.90;;;;;;;;;;5043558;28;20041;-52
2023/08/13 09:38:59;;;;;;;5.75;2.97;;;;;;;;;;5043795;28;20322;-58
2023/08/13 09:41:27;;;;;;;6.78;2.90;;;;;;;;;;5043949;28;20033;-51
2023/08/13 09:43:55;;;;;;;8.45;3.05;;;;;;;;;;5043544;28;20017;-52
2023/08/13 09:46:25;;;;;;;6.88;2.88;;;;;;;;;;5043835;28;20025;-55
2023/08/13 09:48:55;;;;;;;12.35;3.00;;;;;;;;;;5043335;28;20072;-56
2023/08/13 09:51:26;;;;;;;4.82;2.60;;;;;;;;;;5043867;28;20037;-50
2023/08/13 09:53:58;;;;;;;4.53;2.30;;;;;;;;;;5043520;28;20033;-52
2023/08/13 09:56:28;;;;;;;4.53;2.53;;;;;;;;;;5043536;28;20049;-56
2023/08/13 09:58:54;;;;;;;7.82;2.67;;;;;;;;;;5043338;28;20088;-53
2023/08/13 10:01:21;;;;;;;13.60;2.80;;;;;;;;;;5043659;28;20025;-50
2023/08/13 10:03:49;;;;;;;6.40;2.38;;;;;;;;;;5043503;28;20084;-51
2023/08/13 10:06:16;;;;;;;4.80;2.30;;;;;;;;;;5043562;28;20036;-54
2023/08/13 10:08:43;;;;;;;4.85;2.28;;;;;;;;;;5043516;28;20091;-49
2023/08/13 10:11:10;;;;;;;8.60;2.90;;;;;;;;;;5043445;28;20026;-53
2023/08/13 10:13:36;;;;;;;5.65;2.25;;;;;;;;;;5043490;28;20041;-51
2023/08/13 10:16:03;;;;;;;6.50;2.47;;;;;;;;;;5043267;28;20037;-52
2023/08/13 10:18:30;;;;;;;6.50;2.42;;;;;;;;;;5043307;28;20028;-51
2023/08/13 10:20:56;;;;;;;5.03;2.58;;;;;;;;;;5043376;28;20048;-50
2023/08/13 10:23:23;;;;;;;4.85;2.60;;;;;;;;;;5043478;28;20041;-50
2023/08/13 10:25:53;;;;;;;8.45;2.47;;;;;;;;;;5043213;28;20253;-54
2023/08/13 10:28:20;;;;;;;6.43;2.35;;;;;;;;;;5043295;28;20037;-53
2023/08/13 10:30:47;;;;;;;9.70;2.63;;;;;;;;;;5044754;28;20143;-49
2023/08/13 10:33:14;;;;;;;10.43;3.50;;;;;;;;;;5046418;28;20052;-53
2023/08/13 10:35:42;;;;;;;11.55;2.65;;;;;;;;;;5059895;28;20236;-56
2023/08/13 10:38:09;;;;;;;8.02;2.40;;;;;;;;;;5066746;28;20040;-49
2023/08/13 10:40:36;;;;;;;39.78;5.38;;;;;;;;;;5066822;28;20017;-57
2023/08/13 10:43:03;;;;;;;8.65;3.08;;;;;;;;;;5067363;28;20096;-51
2023/08/13 10:45:35;;;;;;;12.30;2.75;;;;;;;;;;5066771;28;20095;-53
2023/08/13 10:48:03;;;;;;;16.17;3.20;;;;;;;;;;5058447;28;20318;-53
2023/08/13 10:50:37;;;;;;;13.30;2.92;;;;;;;;;;5046592;28;20385;-54
2023/08/13 10:53:05;;;;;;;48.13;5.43;;;;;;;;;;5047116;28;20218;-54
2023/08/13 10:55:34;;;;;;;81.47;8.05;;;;;;;;;;5046469;28;20064;-54
2023/08/13 10:58:01;;;;;;;58.83;7.68;;;;;;;;;;5047103;28;20029;-52
2023/08/13 11:00:28;;;;;;;54.05;6.63;;;;;;;;;;5046606;28;20021;-50
2023/08/13 11:03:16;;;;;;;41.05;5.78;;;;;;;;;;5045897;28;20030;-54
2023/08/13 11:05:46;;;;;;;25.92;5.32;;;;;;;;;;5044860;28;20037;-51
2023/08/13 11:08:20;;;;;;;18.08;4.68;;;;;;;;;;5046427;28;20203;-52
2023/08/13 11:10:50;;;;;;;19.25;4.93;;;;;;;;;;5046202;28;20037;-50
2023/08/13 11:13:18;;;;;;;11.52;4.30;;;;;;;;;;5043873;28;20305;-53
2023/08/13 11:15:51;;;;;;;9.45;4.05;;;;;;;;;;5041495;28;20040;-51
2023/08/13 11:18:18;;;;;;;12.48;3.83;;;;;;;;;;5046263;28;20276;-45
2023/08/13 11:20:45;;;;;;;9.60;3.70;;;;;;;;;;5045753;28;20033;-54
2023/08/13 11:23:12;;;;;;;15.10;4.25;;;;;;;;;;5044411;28;20322;-49
2023/08/13 11:25:40;;;;;;;9.70;3.97;;;;;;;;;;5044416;28;20036;-53
2023/08/13 11:28:07;;;;;;;6.50;3.83;;;;;;;;;;5044242;28;20037;-54
2023/08/13 11:30:34;;;;;;;14.07;4.47;;;;;;;;;;5044356;28;20063;-55
2023/08/13 11:33:01;;;;;;;12.70;4.45;;;;;;;;;;5044718;28;20087;-51
2023/08/13 11:35:29;;;;;;;10.15;4.05;;;;;;;;;;5054976;28;20330;-55
2023/08/13 11:37:55;;;;;;;14.35;4.57;;;;;;;;;;5066058;28;20025;-50
2023/08/13 11:40:22;;;;;;;10.07;4.03;;;;;;;;;;5043386;28;20033;-49
2023/08/13 11:42:52;;;;;;;10.52;4.07;;;;;;;;;;5032929;28;20053;-49
2023/08/13 11:45:20;;;;;;;10.52;4.28;;;;;;;;;;5032660;28;20355;-54
2023/08/13 11:47:47;;;;;;;11.63;3.75;;;;;;;;;;5052546;28;20029;-51
2023/08/13 11:50:20;;;;;;;8.90;3.47;;;;;;;;;;5065512;28;20063;-51
2023/08/13 11:53:04;;;;;;;13.68;3.50;;;;;;;;;;5056130;28;20292;-55
2023/08/13 11:55:31;;;;;;;15.25;4.18;;;;;;;;;;5045374;28;20048;-51
2023/08/13 11:57:58;;;;;;;11.60;3.67;;;;;;;;;;5045553;28;20068;-51
2023/08/13 12:00:26;;;;;;;12.85;3.65;;;;;;;;;;5050155;28;20037;-53
2023/08/13 12:02:56;;;;;;;11.25;3.63;;;;;;;;;;5056825;28;20312;-52
2023/08/13 12:05:30;;;;;;;11.80;4.07;;;;;;;;;;5065224;28;20104;-49
2023/08/13 12:07:58;;;;;;;17.88;5.38;;;;;;;;;;5065613;28;20037;-55
2023/08/13 12:10:24;;;;;;;13.35;4.95;;;;;;;;;;5065118;28;20067;-54
2023/08/13 12:12:51;;;;;;;15.73;5.15;;;;;;;;;;5056386;28;20245;-48
2023/08/13 12:15:21;;;;;;;12.98;4.93;;;;;;;;;;5044289;28;20108;-50
2023/08/13 12:17:48;;;;;;;16.17;4.95;;;;;;;;;;5045183;28;20093;-50
2023/08/13 12:20:14;;;;;;;16.10;5.28;;;;;;;;;;5044075;28;20041;-50
2023/08/13 12:22:41;;;;;;;13.10;5.30;;;;;;;;;;5044232;28;20205;-52
2023/08/13 12:25:08;;;;;;;14.13;5.03;;;;;;;;;;5044116;28;20033;-52
2023/08/13 12:27:35;;;;;;;12.73;4.50;;;;;;;;;;5045419;28;20034;-55
2023/08/13 12:30:02;;;;;;;12.23;4.60;;;;;;;;;;5045606;28;20325;-55
2023/08/13 12:32:29;;;;;;;10.30;4.35;;;;;;;;;;5045313;28;20080;-50
2023/08/13 12:34:55;;;;;;;7.57;4.30;;;;;;;;;;5044701;28;20049;-54
2023/08/13 12:37:22;;;;;;;9.65;4.47;;;;;;;;;;5045082;28;20125;-52
2023/08/13 12:39:49;;;;;;;9.15;3.75;;;;;;;;;;5044632;28;20018;-48
2023/08/13 12:42:16;;;;;;;8.18;3.88;;;;;;;;;;5044892;28;20021;-52
2023/08/13 12:44:43;;;;;;;7.85;3.78;;;;;;;;;;5044921;28;20021;-60
2023/08/13 12:47:09;;;;;;;12.10;4.25;;;;;;;;;;5045104;28;20086;-55
2023/08/13 12:49:36;;;;;;;11.93;4.32;;;;;;;;;;5045140;28;20229;-50
2023/08/13 12:52:03;;;;;;;9.85;4.13;;;;;;;;;;5045109;28;20305;-51
2023/08/13 12:54:30;;;;;;;17.58;4.88;;;;;;;;;;5044172;28;20056;-53
2023/08/13 12:56:57;;;;;;;26.25;5.40;;;;;;;;;;5044609;28;20061;-49
2023/08/13 12:59:24;;;;;;;24.92;5.65;;;;;;;;;;5044687;28;20025;-53
2023/08/13 13:01:51;;;;;;;18.95;4.78;;;;;;;;;;5044907;28;20088;-47
2023/08/13 13:04:18;;;;;;;19.15;4.50;;;;;;;;;;5044793;28;20030;-48
2023/08/13 13:06:45;;;;;;;22.85;4.50;;;;;;;;;;5045483;28;20018;-44
2023/08/13 13:09:12;;;;;;;15.20;4.10;;;;;;;;;;5044970;28;20033;-48
2023/08/13 13:11:39;;;;;;;13.77;3.85;;;;;;;;;;5045119;28;20036;-53
2023/08/13 13:14:05;;;;;;;16.40;4.80;;;;;;;;;;5044992;28;20080;-54
2023/08/13 13:16:32;;;;;;;13.55;4.55;;;;;;;;;;5044741;28;20029;-55
2023/08/13 13:18:59;;;;;;;9.40;4.18;;;;;;;;;;5044668;28;20034;-51
2023/08/13 13:21:26;;;;;;;9.98;4.47;;;;;;;;;;5043635;28;20044;-55
2023/08/13 13:24:02;;;;;;;8.82;4.00;;;;;;;;;;5044596;28;20030;-54
2023/08/13 13:26:29;;;;;;;16.40;3.97;;;;;;;;;;5044583;28;20029;-55
2023/08/13 13:29:07;;;;;;;9.07;3.90;;;;;;;;;;5044432;28;20093;-55
2023/08/13 13:31:34;;;;;;;11.07;3.67;;;;;;;;;;5044798;28;20033;-55
2023/08/13 13:34:00;;;;;;;11.43;3.83;;;;;;;;;;5042925;28;20226;-58
2023/08/13 13:36:27;;;;;;;9.38;3.38;;;;;;;;;;5043980;28;20273;-60
2023/08/13 13:38:54;;;;;;;9.20;4.60;;;;;;;;;;5044270;28;20014;-56
2023/08/13 13:41:20;;;;;;;10.00;3.88;;;;;;;;;;5044249;28;20089;-53
2023/08/13 13:43:47;;;;;;;25.63;5.68;;;;;;;;;;5044255;28;20076;-52
2023/08/13 13:46:14;;;;;;;24.02;5.45;;;;;;;;;;5044614;28;20033;-52
2023/08/13 13:48:41;;;;;;;17.52;4.72;;;;;;;;;;5045477;28;20022;-51
2023/08/13 13:51:08;;;;;;;14.30;4.32;;;;;;;;;;5044413;28;20030;-51
2023/08/13 13:53:34;;;;;;;8.57;4.10;;;;;;;;;;5044846;28;20028;-48
2023/08/13 13:56:01;;;;;;;11.45;4.25;;;;;;;;;;5044191;28;20283;-51
2023/08/13 13:58:28;;;;;;;9.23;4.00;;;;;;;;;;5043757;28;20316;-52
2023/08/13 14:00:55;;;;;;;12.73;3.90;;;;;;;;;;5043514;28;20021;-52
2023/08/13 14:03:21;;;;;;;10.45;4.07;;;;;;;;;;5044435;28;20029;-52
2023/08/13 14:05:52;;;;;;;10.38;3.90;;;;;;;;;;5047123;28;20041;-56
2023/08/13 14:08:19;;;;;;;8.98;3.40;;;;;;;;;;5047932;28;20193;-49
2023/08/13 14:10:45;;;;;;;9.82;3.60;;;;;;;;;;5047684;28;20033;-55
2023/08/13 14:13:12;;;;;;;11.35;3.00;;;;;;;;;;5047633;28;20063;-54
2023/08/13 14:15:39;;;;;;;7.30;3.58;;;;;;;;;;5047492;28;20213;-50
2023/08/13 14:18:06;;;;;;;8.23;3.53;;;;;;;;;;5047721;28;20036;-47
2023/08/13 14:20:35;;;;;;;7.30;3.35;;;;;;;;;;5046063;28;20064;-53
2023/08/13 14:23:01;;;;;;;9.55;3.63;;;;;;;;;;5047302;28;20060;-58
2023/08/13 14:25:28;;;;;;;7.93;3.33;;;;;;;;;;5047227;28;20033;-50
2023/08/13 14:27:55;;;;;;;8.57;3.70;;;;;;;;;;5045953;28;20033;-52
2023/08/13 14:30:22;;;;;;;8.75;3.42;;;;;;;;;;5031978;28;20222;-49
2023/08/13 14:32:48;;;;;;;9.75;2.95;;;;;;;;;;5047256;28;20037;-48
2023/08/13 14:35:15;;;;;;;6.50;3.42;;;;;;;;;;5046752;28;20289;-48
2023/08/13 14:37:43;;;;;;;5.28;2.97;;;;;;;;;;5047481;28;20085;-49
2023/08/13 14:40:11;;;;;;;5.82;2.90;;;;;;;;;;5045951;28;20206;-51
2023/08/13 14:42:37;;;;;;;6.15;3.00;;;;;;;;;;5047087;28;20017;-53
2023/08/13 14:45:04;;;;;;;7.93;2.88;;;;;;;;;;5043505;28;20021;-53